createdAt,value
2017-07-04T00:00:59.069Z,2.60
2017-07-04T00:03:28.108Z,3.10
2017-07-04T00:05:57.176Z,2.60
2017-07-04T00:08:26.321Z,3.30
2017-07-04T00:10:55.380Z,3.30
2017-07-04T00:13:24.444Z,3.50
2017-07-04T00:15:53.489Z,3.60
2017-07-04T00:18:22.580Z,4.00
2017-07-04T00:20:51.632Z,2.97
2017-07-04T00:23:20.724Z,3.30
2017-07-04T00:25:49.834Z,2.83
2017-07-04T00:28:18.889Z,3.97
2017-07-04T00:30:47.984Z,3.40
2017-07-04T00:33:17.048Z,3.63
2017-07-04T00:35:46.125Z,3.17
2017-07-04T00:38:15.194Z,2.90
2017-07-04T00:40:44.336Z,3.10
2017-07-04T00:43:13.584Z,3.33
2017-07-04T00:45:42.605Z,3.37
2017-07-04T00:48:11.715Z,3.43
2017-07-04T00:50:40.772Z,3.90
2017-07-04T00:53:09.840Z,3.27
2017-07-04T00:55:38.912Z,3.93
2017-07-04T00:58:08.032Z,3.53
2017-07-04T01:00:37.092Z,3.70
2017-07-04T01:03:06.196Z,4.43
2017-07-04T01:05:35.244Z,3.33
2017-07-04T01:08:04.432Z,3.70
2017-07-04T01:10:33.479Z,4.17
2017-07-04T01:13:02.577Z,3.73
2017-07-04T01:15:31.626Z,3.70
2017-07-04T01:18:00.726Z,3.60
2017-07-04T01:20:29.801Z,3.37
2017-07-04T01:22:58.851Z,4.00
2017-07-04T01:25:27.920Z,4.23
2017-07-04T01:27:56.986Z,4.40
2017-07-04T01:30:26.081Z,4.40
2017-07-04T01:32:55.129Z,4.00
2017-07-04T01:35:24.224Z,3.63
2017-07-04T01:37:53.341Z,4.07
2017-07-04T01:40:22.412Z,4.10
2017-07-04T01:42:51.481Z,4.60
2017-07-04T01:45:21.090Z,4.13
2017-07-04T01:47:50.156Z,4.50
2017-07-04T01:50:19.219Z,4.60
2017-07-04T01:52:48.316Z,4.17
2017-07-04T01:55:17.410Z,4.80
2017-07-04T01:57:46.443Z,4.60
2017-07-04T02:00:15.552Z,4.93
2017-07-04T02:02:44.599Z,4.93
2017-07-04T02:05:13.684Z,4.87
2017-07-04T02:07:42.742Z,4.83
2017-07-04T02:10:11.809Z,5.17
2017-07-04T02:12:40.896Z,6.93
2017-07-04T02:15:09.960Z,6.47
2017-07-04T02:17:39.011Z,5.97
2017-07-04T02:20:08.118Z,5.47
2017-07-04T02:22:37.208Z,6.50
2017-07-04T02:25:06.346Z,5.03
2017-07-04T02:27:35.414Z,6.60
2017-07-04T02:30:04.484Z,4.97
2017-07-04T02:32:33.673Z,5.40
2017-07-04T02:35:02.753Z,5.67
2017-07-04T02:37:32.017Z,5.27
2017-07-04T02:40:01.067Z,6.60
2017-07-04T02:42:30.209Z,5.63
2017-07-04T02:44:59.268Z,6.13
2017-07-04T02:47:28.329Z,6.33
2017-07-04T02:49:57.380Z,6.20
2017-07-04T02:52:26.443Z,6.50
2017-07-04T02:54:55.511Z,5.37
2017-07-04T02:57:24.554Z,6.07
2017-07-04T02:59:53.629Z,6.27
2017-07-04T03:02:22.691Z,6.17
2017-07-04T03:04:51.776Z,6.97
2017-07-04T03:07:20.835Z,6.57
2017-07-04T03:09:49.932Z,7.40
2017-07-04T03:12:19.050Z,6.50
2017-07-04T03:14:48.117Z,7.70
2017-07-04T03:17:17.182Z,6.60
2017-07-04T03:19:46.260Z,6.97
2017-07-04T03:22:15.323Z,8.53
2017-07-04T03:24:44.389Z,8.03
2017-07-04T03:27:13.467Z,7.47
2017-07-04T03:29:42.516Z,7.70
2017-07-04T03:32:11.590Z,9.20
2017-07-04T03:34:40.632Z,7.37
2017-07-04T03:37:09.707Z,8.83
2017-07-04T03:39:38.765Z,8.53
2017-07-04T03:42:07.830Z,8.33
2017-07-04T03:44:37.083Z,11.07
2017-07-04T03:47:06.210Z,10.70
2017-07-04T03:49:35.268Z,12.17
2017-07-04T03:52:04.372Z,11.00
2017-07-04T03:54:33.522Z,11.27
2017-07-04T03:57:02.618Z,13.63
2017-07-04T03:59:31.669Z,11.63
2017-07-04T04:02:00.748Z,13.13
2017-07-04T04:04:29.808Z,14.30
2017-07-04T04:06:58.893Z,14.03
2017-07-04T04:09:27.971Z,14.33
2017-07-04T04:11:57.044Z,14.90
2017-07-04T04:14:26.137Z,15.33
2017-07-04T04:16:55.207Z,16.50
2017-07-04T04:19:24.266Z,16.87
2017-07-04T04:21:53.356Z,14.67
2017-07-04T04:24:22.419Z,15.30
2017-07-04T04:26:51.489Z,15.80
2017-07-04T04:29:20.544Z,15.63
2017-07-04T04:31:49.623Z,14.73
2017-07-04T04:34:18.712Z,14.33
2017-07-04T04:36:47.785Z,15.03
2017-07-04T04:39:16.868Z,14.00
2017-07-04T04:41:45.928Z,15.53
2017-07-04T04:44:15.031Z,16.60
2017-07-04T04:46:44.122Z,16.70
2017-07-04T04:49:13.885Z,15.50
2017-07-04T04:51:43.888Z,13.77
2017-07-04T04:54:13.012Z,15.00
2017-07-04T04:56:42.035Z,16.00
2017-07-04T04:59:12.687Z,15.87
2017-07-04T05:01:41.709Z,15.30
2017-07-04T05:04:10.918Z,15.03
2017-07-04T05:06:39.955Z,17.00
2017-07-04T05:09:09.041Z,14.63
2017-07-04T05:11:38.088Z,15.13
2017-07-04T05:14:07.173Z,18.33
2017-07-04T05:16:36.231Z,16.30
2017-07-04T05:19:05.372Z,16.93
2017-07-04T05:21:34.396Z,16.30
2017-07-04T05:24:03.495Z,16.23
2017-07-04T05:26:32.583Z,15.20
2017-07-04T05:29:01.647Z,16.70
2017-07-04T05:31:30.731Z,15.73
2017-07-04T05:33:59.805Z,16.23
2017-07-04T05:36:28.930Z,14.37
2017-07-04T05:38:57.992Z,15.23
2017-07-04T05:41:27.041Z,16.40
2017-07-04T05:43:56.115Z,18.80
2017-07-04T05:46:25.234Z,20.07
2017-07-04T05:48:54.341Z,21.03
2017-07-04T05:51:23.408Z,20.50
2017-07-04T05:53:52.493Z,21.00
2017-07-04T05:56:21.599Z,19.80
2017-07-04T05:58:50.663Z,21.50
2017-07-04T06:01:19.719Z,20.93
2017-07-04T06:03:48.839Z,23.40
2017-07-04T06:06:17.935Z,21.23
2017-07-04T06:08:47.062Z,25.00
2017-07-04T06:11:16.119Z,24.23
2017-07-04T06:13:45.301Z,26.17
2017-07-04T06:16:14.403Z,28.10
2017-07-04T06:18:43.465Z,29.27
2017-07-04T06:21:12.759Z,27.50
2017-07-04T06:23:41.857Z,27.30
2017-07-04T06:26:11.022Z,28.37
2017-07-04T06:28:40.081Z,26.83
2017-07-04T06:31:09.144Z,26.40
2017-07-04T06:33:38.264Z,26.20
2017-07-04T06:36:07.516Z,28.03
2017-07-04T06:38:36.583Z,23.60
2017-07-04T06:41:06.459Z,21.57
2017-07-04T06:43:35.723Z,19.03
2017-07-04T06:46:10.676Z,17.97
2017-07-04T06:48:42.725Z,17.93
2017-07-04T06:51:11.835Z,17.03
2017-07-04T06:53:40.916Z,17.23
2017-07-04T06:56:09.983Z,16.83
2017-07-04T06:58:39.050Z,17.93
2017-07-04T07:01:08.138Z,17.73
2017-07-04T07:03:37.207Z,17.97
2017-07-04T07:06:06.314Z,18.50
2017-07-04T07:08:35.402Z,19.53
2017-07-04T07:11:04.478Z,19.87
2017-07-04T07:13:33.581Z,23.53
2017-07-04T07:16:02.795Z,25.30
2017-07-04T07:18:32.866Z,28.30
2017-07-04T07:21:01.932Z,28.33
2017-07-04T07:23:31.041Z,30.93
2017-07-04T07:26:00.077Z,30.40
2017-07-04T07:28:29.178Z,34.20
2017-07-04T07:30:58.222Z,34.10
2017-07-04T07:33:28.418Z,31.57
2017-07-04T07:35:57.481Z,30.27
2017-07-04T07:38:26.573Z,31.20
2017-07-04T07:40:55.646Z,32.40
2017-07-04T07:43:24.724Z,31.87
2017-07-04T07:45:53.791Z,33.33
2017-07-04T07:48:22.844Z,34.27
2017-07-04T07:50:51.951Z,34.47
2017-07-04T07:53:20.987Z,36.00
2017-07-04T07:55:50.082Z,34.57
2017-07-04T07:58:19.162Z,32.57
2017-07-04T08:00:48.263Z,32.83
2017-07-04T08:03:17.323Z,31.83
2017-07-04T08:05:46.420Z,30.47
2017-07-04T08:08:15.593Z,29.50
2017-07-04T08:10:44.651Z,29.00
2017-07-04T08:13:13.762Z,29.00
2017-07-04T08:15:43.011Z,30.60
2017-07-04T08:18:12.159Z,28.00
2017-07-04T08:20:41.205Z,29.20
2017-07-04T08:23:10.311Z,25.77
2017-07-04T08:25:39.384Z,29.43
2017-07-04T08:28:08.464Z,27.80
2017-07-04T08:30:37.532Z,28.17
2017-07-04T08:33:06.623Z,28.33
2017-07-04T08:35:35.697Z,25.70
2017-07-04T08:38:05.042Z,27.27
2017-07-04T08:40:34.075Z,28.70
2017-07-04T08:43:03.181Z,26.30
2017-07-04T08:45:32.274Z,26.03
2017-07-04T08:48:01.344Z,24.70
2017-07-04T08:50:30.431Z,25.00
2017-07-04T08:52:59.541Z,25.53
2017-07-04T08:55:28.607Z,24.30
2017-07-04T08:57:57.696Z,23.37
2017-07-04T09:00:26.766Z,23.67
2017-07-04T09:02:55.837Z,23.10
2017-07-04T09:05:24.929Z,22.40
2017-07-04T09:07:53.979Z,21.67
2017-07-04T09:10:23.105Z,23.27
2017-07-04T09:12:52.168Z,22.27
2017-07-04T09:15:21.253Z,23.00
2017-07-04T09:17:50.308Z,20.97
2017-07-04T09:20:19.431Z,19.30
2017-07-04T09:22:48.484Z,21.73
2017-07-04T09:25:17.548Z,19.97
2017-07-04T09:27:46.628Z,19.33
2017-07-04T09:30:15.723Z,19.87
2017-07-04T09:32:44.784Z,21.60
2017-07-04T09:35:13.889Z,21.03
2017-07-04T09:37:42.965Z,20.97
2017-07-04T09:40:13.513Z,20.53
2017-07-04T09:42:42.593Z,18.57
2017-07-04T09:45:11.670Z,18.70
2017-07-04T09:47:41.003Z,16.00
2017-07-04T09:50:10.071Z,17.30
2017-07-04T09:52:39.148Z,16.20
2017-07-04T09:55:08.247Z,16.50
2017-07-04T09:57:37.371Z,16.17
2017-07-04T10:00:06.441Z,17.33
2017-07-04T10:02:35.513Z,15.40
2017-07-04T10:05:04.590Z,14.67
2017-07-04T10:07:34.029Z,14.23
2017-07-04T10:10:03.337Z,12.90
2017-07-04T10:12:32.444Z,13.00
2017-07-04T10:15:01.508Z,11.90
2017-07-04T10:17:30.836Z,12.80
2017-07-04T10:19:59.909Z,10.83
2017-07-04T10:22:29.004Z,10.50
2017-07-04T10:24:58.109Z,10.40
2017-07-04T10:27:27.190Z,11.50
2017-07-04T10:29:56.255Z,12.10
2017-07-04T10:32:26.237Z,12.30
2017-07-04T10:34:55.327Z,12.90
2017-07-04T10:37:24.385Z,12.50
2017-07-04T10:39:53.454Z,10.37
2017-07-04T10:42:22.531Z,9.50
2017-07-04T10:44:51.600Z,9.90
2017-07-04T10:47:20.640Z,10.80
2017-07-04T10:49:49.731Z,13.23
2017-07-04T10:52:18.798Z,20.97
2017-07-04T10:54:47.884Z,23.80
2017-07-04T10:57:16.996Z,25.70
2017-07-04T10:59:46.087Z,24.90
2017-07-04T11:02:15.168Z,28.10
2017-07-04T11:04:44.244Z,27.53
2017-07-04T11:07:13.307Z,26.30
2017-07-04T11:09:42.410Z,27.07
2017-07-04T11:12:11.514Z,27.70
2017-07-04T11:14:40.678Z,25.43
2017-07-04T11:17:09.744Z,26.43
2017-07-04T11:19:38.814Z,27.70
2017-07-04T11:22:07.889Z,27.70
2017-07-04T11:24:36.957Z,26.93
2017-07-04T11:27:07.019Z,27.90
2017-07-04T11:29:36.073Z,27.73
2017-07-04T11:32:05.156Z,28.67
2017-07-04T11:34:34.262Z,29.40
2017-07-04T11:37:03.350Z,26.43
2017-07-04T11:39:32.443Z,28.20
2017-07-04T11:42:01.566Z,26.20
2017-07-04T11:44:30.623Z,27.30
2017-07-04T11:46:59.689Z,26.00
2017-07-04T11:49:28.756Z,27.50
2017-07-04T11:51:57.868Z,27.43
2017-07-04T11:54:26.952Z,26.73
2017-07-04T11:56:57.337Z,27.47
2017-07-04T11:59:26.451Z,25.03
2017-07-04T12:01:55.580Z,24.37
2017-07-04T12:04:24.616Z,23.40
2017-07-04T12:06:53.712Z,25.47
2017-07-04T12:09:22.789Z,26.33
2017-07-04T12:11:52.109Z,26.70
2017-07-04T12:14:21.212Z,26.80
2017-07-04T12:16:50.267Z,27.13
2017-07-04T12:19:19.373Z,26.20
2017-07-04T12:21:48.420Z,26.27
2017-07-04T12:24:17.494Z,24.70
2017-07-04T12:26:46.583Z,24.97
2017-07-04T12:29:15.730Z,25.40
2017-07-04T12:31:44.822Z,23.43
2017-07-04T12:34:13.896Z,23.47
2017-07-04T12:36:43.001Z,20.07
2017-07-04T12:39:12.074Z,21.07
2017-07-04T12:41:41.172Z,19.70
2017-07-04T12:44:10.229Z,21.77
2017-07-04T12:46:39.313Z,18.50
2017-07-04T12:49:08.391Z,15.47
2017-07-04T12:51:37.482Z,13.63
2017-07-04T12:54:06.914Z,12.57
2017-07-04T12:56:35.981Z,11.60
2017-07-04T12:59:05.100Z,13.70
2017-07-04T13:01:34.156Z,13.93
2017-07-04T13:04:03.263Z,13.50
2017-07-04T13:06:32.313Z,13.40
2017-07-04T13:09:01.394Z,12.80
2017-07-04T13:11:30.467Z,13.33
2017-07-04T13:13:59.549Z,13.40
2017-07-04T13:16:28.704Z,11.93
2017-07-04T13:18:57.793Z,11.20
2017-07-04T13:21:26.852Z,10.00
2017-07-04T13:23:55.977Z,10.90
2017-07-04T13:26:25.036Z,11.30
2017-07-04T13:28:54.206Z,10.50
2017-07-04T13:31:23.295Z,10.87
2017-07-04T13:33:52.384Z,12.30
2017-07-04T13:36:21.476Z,11.60
2017-07-04T13:38:50.540Z,9.80
2017-07-04T13:41:19.663Z,11.73
2017-07-04T13:43:48.745Z,11.80
2017-07-04T13:46:17.839Z,12.40
2017-07-04T13:48:46.933Z,13.07
2017-07-04T13:51:16.001Z,14.53
2017-07-04T13:53:45.116Z,13.17
2017-07-04T13:56:14.192Z,12.97
2017-07-04T13:58:43.281Z,14.30
2017-07-04T14:01:12.346Z,12.77
2017-07-04T14:03:41.404Z,11.23
2017-07-04T14:06:11.532Z,12.77
2017-07-04T14:08:41.594Z,12.93
2017-07-04T14:11:10.743Z,11.60
2017-07-04T14:13:39.793Z,12.87
2017-07-04T14:16:08.851Z,13.90
2017-07-04T14:18:37.985Z,11.70
2017-07-04T14:21:07.048Z,13.20
2017-07-04T14:23:36.156Z,12.30
2017-07-04T14:26:05.264Z,15.20
2017-07-04T14:28:34.322Z,15.57
2017-07-04T14:31:03.449Z,15.43
2017-07-04T14:33:32.515Z,13.07
2017-07-04T14:36:01.619Z,12.60
2017-07-04T14:38:30.689Z,12.50
2017-07-04T14:40:59.772Z,13.80
2017-07-04T14:43:28.881Z,12.90
2017-07-04T14:45:57.979Z,15.33
2017-07-04T14:48:27.033Z,13.47
2017-07-04T14:50:56.137Z,14.03
2017-07-04T14:53:25.200Z,13.03
2017-07-04T14:55:54.297Z,15.03
2017-07-04T14:58:23.390Z,14.00
2017-07-04T15:00:52.461Z,14.60
2017-07-04T15:03:21.525Z,14.70
2017-07-04T15:05:50.587Z,13.20
2017-07-04T15:08:19.674Z,14.57
2017-07-04T15:10:48.750Z,14.70
2017-07-04T15:13:17.863Z,14.33
2017-07-04T15:15:46.918Z,13.97
2017-07-04T15:18:16.018Z,13.90
2017-07-04T15:20:45.122Z,12.90
2017-07-04T15:23:14.196Z,13.27
2017-07-04T15:25:43.291Z,14.37
2017-07-04T15:28:12.350Z,12.63
2017-07-04T15:30:41.430Z,14.03
2017-07-04T15:33:10.825Z,11.77
2017-07-04T15:35:39.887Z,11.80
2017-07-04T15:38:08.980Z,12.20
2017-07-04T15:40:38.077Z,12.90
2017-07-04T15:43:07.160Z,12.17
2017-07-04T15:45:36.304Z,13.13
2017-07-04T15:48:05.398Z,11.67
2017-07-04T15:50:34.713Z,11.87
2017-07-04T15:53:03.807Z,11.50
2017-07-04T15:55:32.941Z,10.27
2017-07-04T15:58:02.023Z,10.80
2017-07-04T16:00:31.397Z,10.00
2017-07-04T16:03:00.461Z,9.67
2017-07-04T16:05:29.535Z,11.23
2017-07-04T16:07:58.601Z,11.30
2017-07-04T16:10:27.688Z,11.50
2017-07-04T16:12:56.803Z,10.30
2017-07-04T16:15:25.853Z,10.37
2017-07-04T16:17:54.939Z,11.70
2017-07-04T16:20:24.386Z,11.50
2017-07-04T16:22:53.440Z,12.13
2017-07-04T16:25:22.539Z,11.07
2017-07-04T16:27:51.637Z,11.33
2017-07-04T16:30:20.713Z,10.53
2017-07-04T16:32:50.929Z,10.40
2017-07-04T16:35:20.042Z,12.63
2017-07-04T16:37:49.096Z,12.60
2017-07-04T16:40:18.206Z,11.80
2017-07-04T16:42:47.295Z,12.80
2017-07-04T16:45:16.374Z,12.00
2017-07-04T16:47:45.471Z,11.17
2017-07-04T16:50:14.570Z,11.77
2017-07-04T16:52:43.853Z,11.43
2017-07-04T16:55:12.953Z,11.33
2017-07-04T16:57:42.002Z,10.67
2017-07-04T17:00:11.143Z,10.17
2017-07-04T17:02:40.214Z,37.83
2017-07-04T17:05:09.313Z,13.60
2017-07-04T17:07:38.419Z,12.37
2017-07-04T17:10:07.954Z,11.50
2017-07-04T17:12:37.045Z,11.37
2017-07-04T17:15:06.121Z,10.57
2017-07-04T17:17:35.201Z,10.70
2017-07-04T17:20:04.305Z,9.70
2017-07-04T17:22:34.480Z,9.70
2017-07-04T17:25:03.575Z,10.23
2017-07-04T17:27:32.834Z,8.80
2017-07-04T17:30:01.925Z,9.87
2017-07-04T17:32:30.992Z,9.80
2017-07-04T17:35:00.077Z,9.87
2017-07-04T17:37:29.187Z,9.80
2017-07-04T17:39:58.264Z,9.53
2017-07-04T17:42:27.364Z,9.60
2017-07-04T17:44:56.414Z,8.30
2017-07-04T17:47:25.775Z,9.70
2017-07-04T17:49:54.888Z,9.53
2017-07-04T17:52:23.921Z,9.93
2017-07-04T17:54:53.019Z,8.73
2017-07-04T17:57:22.106Z,10.10
2017-07-04T17:59:51.172Z,9.00
2017-07-04T18:02:20.303Z,10.40
2017-07-04T18:04:49.364Z,9.60
2017-07-04T18:07:18.458Z,8.83
2017-07-04T18:09:47.548Z,10.37
2017-07-04T18:12:17.395Z,9.00
2017-07-04T18:14:46.469Z,9.50
2017-07-04T18:17:15.560Z,9.30
2017-07-04T18:19:44.679Z,9.40
2017-07-04T18:22:13.749Z,9.37
2017-07-04T18:24:43.577Z,9.63
2017-07-04T18:27:12.714Z,8.73
2017-07-04T18:29:41.777Z,9.10
2017-07-04T18:32:10.919Z,9.87
2017-07-04T18:34:39.992Z,8.27
2017-07-04T18:37:09.049Z,9.67
2017-07-04T18:39:38.152Z,10.53
2017-07-04T18:42:07.502Z,9.33
2017-07-04T18:44:36.562Z,9.00
2017-07-04T18:47:05.624Z,8.77
2017-07-04T18:49:34.735Z,8.00
2017-07-04T18:52:03.815Z,9.43
2017-07-04T18:54:33.984Z,8.20
2017-07-04T18:57:03.499Z,8.13
2017-07-04T18:59:32.586Z,7.97
2017-07-04T19:02:01.687Z,8.17
2017-07-04T19:04:31.520Z,7.20
2017-07-04T19:07:00.634Z,7.03
2017-07-04T19:09:29.705Z,7.37
2017-07-04T19:11:58.757Z,7.33
2017-07-04T19:14:27.821Z,8.33
2017-07-04T19:16:58.135Z,8.87
2017-07-04T19:19:27.174Z,7.90
2017-07-04T19:21:56.245Z,7.50
2017-07-04T19:24:25.300Z,9.80
2017-07-04T19:26:54.578Z,7.80
2017-07-04T19:29:23.650Z,8.90
2017-07-04T19:31:52.740Z,8.60
2017-07-04T19:34:21.831Z,8.33
2017-07-04T19:36:51.651Z,7.60
2017-07-04T19:39:21.501Z,7.83
2017-07-04T19:41:50.552Z,7.30
2017-07-04T19:44:19.628Z,8.37
2017-07-04T19:46:49.447Z,7.90
2017-07-04T19:49:19.318Z,9.00
2017-07-04T19:51:48.451Z,8.37
2017-07-04T19:54:18.019Z,7.83
2017-07-04T19:56:47.520Z,7.60
2017-07-04T19:59:16.615Z,8.33
2017-07-04T20:01:45.732Z,7.27
2017-07-04T20:04:14.835Z,8.40
2017-07-04T20:06:43.922Z,8.33
2017-07-04T20:09:13.116Z,8.37
2017-07-04T20:11:42.189Z,8.33
2017-07-04T20:14:11.353Z,8.70
2017-07-04T20:16:41.315Z,8.50
2017-07-04T20:19:10.374Z,8.07
2017-07-04T20:21:39.473Z,7.97
2017-07-04T20:24:08.561Z,9.23
2017-07-04T20:26:37.641Z,8.00
2017-07-04T20:29:07.528Z,7.90
2017-07-04T20:31:36.633Z,8.33
2017-07-04T20:34:05.693Z,7.20
2017-07-04T20:36:34.775Z,8.93
2017-07-04T20:39:03.843Z,9.60
2017-07-04T20:41:32.896Z,8.63
2017-07-04T20:44:02.009Z,9.50
2017-07-04T20:46:31.062Z,9.60
2017-07-04T20:49:00.136Z,9.37
2017-07-04T20:51:29.308Z,10.10
2017-07-04T20:53:59.117Z,9.70
2017-07-04T20:56:28.955Z,10.83
2017-07-04T20:58:58.030Z,10.27
2017-07-04T21:01:27.915Z,9.53
2017-07-04T21:03:56.963Z,9.40
2017-07-04T21:06:26.067Z,11.50
2017-07-04T21:08:55.155Z,10.20
2017-07-04T21:11:24.238Z,12.57
2017-07-04T21:13:53.389Z,11.67
2017-07-04T21:16:22.604Z,12.97
2017-07-04T21:18:52.448Z,14.43
2017-07-04T21:21:21.513Z,14.40
2017-07-04T21:23:51.423Z,14.47
2017-07-04T21:26:20.529Z,14.60
2017-07-04T21:28:50.408Z,15.60
2017-07-04T21:31:19.446Z,14.73
2017-07-04T21:33:48.527Z,16.47
2017-07-04T21:36:18.364Z,15.20
2017-07-04T21:38:47.512Z,14.60
2017-07-04T21:41:16.564Z,14.13
2017-07-04T21:43:45.663Z,14.30
2017-07-04T21:46:14.732Z,13.60
2017-07-04T21:48:44.555Z,12.67
2017-07-04T21:51:14.025Z,13.57
2017-07-04T21:53:43.101Z,14.70
2017-07-04T21:56:12.192Z,13.03
2017-07-04T21:58:41.260Z,14.30
2017-07-04T22:01:10.357Z,13.63
2017-07-04T22:03:41.458Z,13.00
2017-07-04T22:06:11.613Z,13.03
2017-07-04T22:08:40.665Z,13.43
2017-07-04T22:11:10.617Z,14.50
2017-07-04T22:13:40.429Z,13.00
2017-07-04T22:16:10.390Z,14.63
2017-07-04T22:18:39.442Z,14.23
2017-07-04T22:21:09.370Z,13.23
2017-07-04T22:23:39.217Z,13.97
2017-07-04T22:26:08.277Z,12.93
2017-07-04T22:28:37.352Z,13.60
2017-07-04T22:31:06.392Z,12.90
2017-07-04T22:33:35.485Z,13.63
2017-07-04T22:36:04.561Z,13.60
2017-07-04T22:38:33.619Z,15.20
2017-07-04T22:41:03.455Z,13.17
2017-07-04T22:43:32.522Z,15.47
2017-07-04T22:46:01.647Z,14.83
2017-07-04T22:48:30.712Z,13.60
2017-07-04T22:51:00.552Z,14.30
2017-07-04T22:53:29.621Z,14.33
2017-07-04T22:55:58.693Z,15.60
2017-07-04T22:58:27.778Z,17.00
2017-07-04T23:00:56.859Z,13.50
2017-07-04T23:03:25.964Z,14.17
2017-07-04T23:05:55.036Z,14.20
2017-07-04T23:08:24.101Z,14.00
2017-07-04T23:10:53.945Z,16.13
2017-07-04T23:13:23.040Z,15.57
2017-07-04T23:15:52.126Z,15.87
2017-07-04T23:18:21.209Z,14.57
2017-07-04T23:20:50.274Z,15.87
2017-07-04T23:23:19.316Z,14.00
2017-07-04T23:25:48.416Z,14.30
2017-07-04T23:28:17.502Z,14.20
2017-07-04T23:30:46.563Z,15.47
2017-07-04T23:33:15.677Z,15.90
2017-07-04T23:35:45.489Z,13.73
2017-07-04T23:38:14.566Z,15.63
2017-07-04T23:40:44.429Z,16.57
2017-07-04T23:43:13.520Z,16.77
2017-07-04T23:45:42.595Z,17.53
2017-07-04T23:48:12.410Z,18.20
2017-07-04T23:50:41.504Z,15.70
2017-07-04T23:53:12.139Z,17.53
2017-07-04T23:55:41.224Z,14.90
2017-07-04T23:58:11.073Z,15.53
